Time;durP1;ratioP1;P1;durP2;ratioP2;P2;SDS_P1;SDS_P2;PMS_P1;PMS_P2;Temp;Humidity;BMP_temperature;BMP_pressure;BME280_temperature;BME280_humidity;BME280_pressure;Samples;Min_cycle;Max_cycle;Signal;HPM_P1;HPM_P2
2023/10/08 00:03:08;;;;;;;13.02;6.43;;;;;;;18.42;38.83;99888.69;5050199;28;19919;-47
2023/10/08 00:05:38;;;;;;;10.98;5.88;;;;;;;18.38;38.91;99890.28;5049640;28;20453;-42
2023/10/08 00:08:04;;;;;;;16.60;5.93;;;;;;;18.59;39.69;99891.31;5049921;28;20052;-44
2023/10/08 00:10:44;;;;;;;13.40;7.07;;;;;;;18.75;38.38;99882.31;5049818;28;20505;-45
2023/10/08 00:13:10;;;;;;;13.88;7.32;;;;;;;18.79;39.59;99872.69;5049845;28;20028;-45
2023/10/08 00:15:36;;;;;;;14.93;7.28;;;;;;;18.55;39.36;99872.16;5050063;28;20112;-46
2023/10/08 00:18:06;;;;;;;12.88;6.47;;;;;;;18.50;39.09;99880.16;5050402;28;20444;-44
2023/10/08 00:21:16;;;;;;;12.40;6.30;;;;;;;18.36;38.75;99869.78;5051006;28;20039;-42
2023/10/08 00:23:25;;;;;;;15.38;7.07;;;;;;;18.54;39.23;99867.81;5047569;28;20091;-46
2023/10/08 00:25:52;;;;;;;13.48;6.75;;;;;;;18.86;38.02;99869.78;5050476;28;20028;-42
2023/10/08 00:28:17;;;;;;;14.02;6.80;;;;;;;18.76;38.09;99857.81;5050832;28;20021;-44
2023/10/08 00:30:44;;;;;;;12.30;6.18;;;;;;;18.61;38.66;99862.22;5050260;28;20086;-43
2023/10/08 00:33:11;;;;;;;12.60;5.93;;;;;;;18.88;37.95;99864.94;5052138;28;20040;-46
2023/10/08 00:35:41;;;;;;;12.85;5.78;;;;;;;18.98;39.42;99856.94;5054319;28;20126;-43
2023/10/08 00:38:14;;;;;;;12.93;6.35;;;;;;;18.48;39.10;99858.03;5054280;28;20021;-44
2023/10/08 00:40:40;;;;;;;11.50;5.95;;;;;;;18.80;38.80;99863.53;5054576;28;20017;-42
2023/10/08 00:43:10;;;;;;;17.15;6.43;;;;;;;18.44;38.80;99838.88;5054510;28;20067;-45
2023/10/08 00:45:43;;;;;;;12.77;5.88;;;;;;;18.84;38.39;99869.22;5054005;28;20489;-42
2023/10/08 00:48:16;;;;;;;15.90;7.93;;;;;;;18.95;38.60;99860.16;5054271;28;20025;-45
2023/10/08 00:50:43;;;;;;;11.85;6.13;;;;;;;18.87;38.71;99857.94;5053739;28;20028;-42
2023/10/08 00:53:28;;;;;;;9.60;5.43;;;;;;;18.92;37.51;99864.19;5054205;28;20060;-43
2023/10/08 00:56:00;;;;;;;9.85;5.40;;;;;;;18.83;37.45;99854.09;5054112;28;20021;-42
2023/10/08 00:58:26;;;;;;;9.40;4.95;;;;;;;18.65;37.55;99856.06;5053989;28;20033;-43
2023/10/08 01:00:59;;;;;;;8.18;4.55;;;;;;;18.56;37.67;99853.03;5053732;28;20069;-44
2023/10/08 01:03:26;;;;;;;11.88;4.13;;;;;;;18.46;37.40;99846.72;5053963;28;20029;-45
2023/10/08 01:05:54;;;;;;;8.30;4.88;;;;;;;18.41;37.60;99849.34;5053677;28;20025;-43
2023/10/08 01:08:34;;;;;;;9.20;5.10;;;;;;;18.68;37.18;99854.78;5053601;28;20021;-42
2023/10/08 01:11:11;;;;;;;10.40;4.80;;;;;;;18.72;37.13;99845.91;5053859;28;20043;-42
2023/10/08 01:13:42;;;;;;;10.20;5.05;;;;;;;18.86;36.94;99848.22;5053625;28;20526;-43
2023/10/08 01:16:09;;;;;;;10.38;4.63;;;;;;;18.69;36.93;99849.09;5053708;28;20079;-43
2023/10/08 01:18:35;;;;;;;12.05;4.75;;;;;;;18.86;36.78;99846.31;5053650;28;20052;-44
2023/10/08 01:21:08;;;;;;;9.65;4.55;;;;;;;18.86;36.95;99845.53;5053442;28;20021;-44
2023/10/08 01:23:33;;;;;;;11.15;4.90;;;;;;;18.64;37.42;99832.91;5053844;28;20024;-43
2023/10/08 01:26:11;;;;;;;10.45;4.65;;;;;;;18.75;38.50;99842.72;5053552;28;20017;-44
2023/10/08 01:28:37;;;;;;;7.05;4.07;;;;;;;18.81;37.69;99835.53;5053735;28;20051;-42
2023/10/08 01:31:04;;;;;;;11.18;4.75;;;;;;;18.81;37.73;99832.00;5053495;28;20540;-46
2023/10/08 01:33:47;;;;;;;7.75;4.15;;;;;;;19.19;37.85;99838.25;5053568;28;20032;-45
2023/10/08 01:36:12;;;;;;;8.43;4.05;;;;;;;19.34;39.42;99827.56;5053197;28;20021;-43
2023/10/08 01:38:39;;;;;;;7.53;4.35;;;;;;;19.72;36.42;99820.28;5052983;28;20488;-42
2023/10/08 01:41:18;;;;;;;9.20;4.60;;;;;;;19.75;36.05;99824.34;5053045;28;20053;-45
2023/10/08 01:43:49;;;;;;;8.95;4.75;;;;;;;19.62;38.52;99815.59;5053059;28;20110;-43
2023/10/08 01:46:15;;;;;;;11.13;4.60;;;;;;;19.73;36.05;99825.41;5053037;28;20037;-43
2023/10/08 01:48:44;;;;;;;9.27;4.43;;;;;;;19.88;37.26;99813.88;5052643;28;20036;-44
2023/10/08 01:51:11;;;;;;;9.77;4.90;;;;;;;19.74;36.49;99810.00;5052902;28;20176;-44
2023/10/08 01:53:39;;;;;;;9.50;5.13;;;;;;;19.69;36.60;99809.97;5052928;28;20025;-44
2023/10/08 01:56:05;;;;;;;9.00;4.90;;;;;;;19.65;36.47;99800.78;5053098;28;20021;-46
2023/10/08 01:58:33;;;;;;;9.90;5.05;;;;;;;19.22;37.63;99806.19;5052789;28;20044;-44
2023/10/08 02:01:00;;;;;;;8.52;4.70;;;;;;;19.27;37.78;99800.81;5052291;28;20068;-46
2023/10/08 02:03:27;;;;;;;13.25;4.28;;;;;;;18.72;37.62;99801.97;5052727;28;20021;-44
2023/10/08 02:05:53;;;;;;;8.52;4.13;;;;;;;18.60;37.81;99798.59;5052403;28;20422;-44
2023/10/08 02:08:19;;;;;;;7.07;3.88;;;;;;;18.62;37.42;99796.47;5052923;28;20028;-49
2023/10/08 02:10:47;;;;;;;6.10;3.70;;;;;;;18.44;37.80;99790.38;5052875;28;20020;-42
2023/10/08 02:13:14;;;;;;;7.22;3.85;;;;;;;18.46;39.71;99792.81;5052876;28;20079;-42
2023/10/08 02:15:53;;;;;;;12.13;4.00;;;;;;;18.26;38.83;99791.56;5052920;28;20028;-46
2023/10/08 02:18:25;;;;;;;7.00;3.90;;;;;;;18.14;38.85;99793.56;5051882;28;20100;-45
2023/10/08 02:20:51;;;;;;;7.93;4.05;;;;;;;18.34;38.39;99785.72;5052423;28;20028;-42
2023/10/08 02:23:18;;;;;;;7.63;3.67;;;;;;;18.55;37.68;99788.59;5052410;28;20431;-42
2023/10/08 02:25:44;;;;;;;8.02;4.38;;;;;;;18.66;37.85;99797.63;5051812;28;20099;-43
2023/10/08 02:28:15;;;;;;;11.23;4.63;;;;;;;18.49;37.79;99790.44;5052360;28;20051;-42
2023/10/08 02:30:41;;;;;;;10.02;5.18;;;;;;;18.44;37.86;99801.16;5051665;28;20021;-43
2023/10/08 02:33:13;;;;;;;13.15;4.95;;;;;;;18.58;37.11;99798.84;5051793;28;20021;-43
2023/10/08 02:35:43;;;;;;;13.15;6.18;;;;;;;18.53;36.39;99778.06;5052362;28;20024;-45
2023/10/08 02:38:12;;;;;;;21.42;6.57;;;;;;;18.54;36.93;99782.41;5052113;28;20325;-44
2023/10/08 02:40:44;;;;;;;15.20;6.65;;;;;;;18.78;36.02;99776.69;5051873;28;20021;-45
2023/10/08 02:43:11;;;;;;;14.02;6.30;;;;;;;19.07;35.33;99774.50;5051803;28;20083;-45
2023/10/08 02:45:40;;;;;;;19.98;7.28;;;;;;;18.99;35.30;99766.91;5051764;28;20037;-42
2023/10/08 02:48:11;;;;;;;17.90;7.55;;;;;;;19.13;35.42;99760.00;5052221;28;20028;-46
2023/10/08 02:50:40;;;;;;;15.13;6.55;;;;;;;19.13;35.91;99770.78;5052035;28;20094;-45
2023/10/08 02:53:12;;;;;;;16.70;7.20;;;;;;;18.82;36.33;99768.94;5051928;28;20678;-43
2023/10/08 02:55:46;;;;;;;13.98;6.82;;;;;;;18.72;37.11;99754.25;5051272;28;20036;-43
2023/10/08 02:58:15;;;;;;;12.00;6.15;;;;;;;18.91;36.60;99768.19;5051690;28;20094;-43
2023/10/08 03:00:46;;;;;;;11.97;5.33;;;;;;;18.85;36.34;99774.63;5051507;28;20174;-44
2023/10/08 03:03:15;;;;;;;12.73;5.20;;;;;;;18.87;36.37;99766.28;5051539;28;20052;-45
2023/10/08 03:05:52;;;;;;;12.07;5.32;;;;;;;19.02;36.04;99769.09;5051500;28;20033;-39
2023/10/08 03:08:21;;;;;;;9.10;4.63;;;;;;;19.05;36.51;99763.16;5050864;28;20477;-38
2023/10/08 03:10:55;;;;;;;12.20;5.00;;;;;;;19.25;36.45;99778.69;5050735;28;20467;-39
2023/10/08 03:13:21;;;;;;;18.25;4.82;;;;;;;19.17;35.53;99770.25;5051259;28;20461;-38
2023/10/08 03:15:57;;;;;;;8.50;4.35;;;;;;;19.13;35.40;99764.56;5051359;28;20090;-38
2023/10/08 03:18:23;;;;;;;7.72;4.13;;;;;;;19.26;34.78;99772.19;5051476;28;20029;-40
2023/10/08 03:20:49;;;;;;;6.65;3.90;;;;;;;19.25;34.93;99769.78;5051299;28;20023;-38
2023/10/08 03:23:43;;;;;;;6.38;3.80;;;;;;;18.95;35.03;99768.50;5051185;28;20070;-38
2023/10/08 03:26:10;;;;;;;11.85;3.92;;;;;;;19.02;34.60;99747.53;5050697;28;20037;-38
2023/10/08 03:28:37;;;;;;;13.15;4.65;;;;;;;19.19;34.20;99752.75;5051127;28;20029;-39
2023/10/08 03:31:04;;;;;;;13.13;4.53;;;;;;;18.99;34.42;99753.41;5051258;28;20029;-37
2023/10/08 03:33:35;;;;;;;10.48;4.97;;;;;;;19.16;34.43;99753.28;5051418;28;20025;-38
2023/10/08 03:36:50;;;;;;;21.05;5.35;;;;;;;18.93;34.47;99759.84;5051510;28;20104;-38
2023/10/08 03:38:50;;;;;;;11.82;4.40;;;;;;;18.81;35.01;99756.50;5050620;28;20040;-39
2023/10/08 03:41:32;;;;;;;9.68;4.40;;;;;;;18.94;34.63;99756.91;5051287;28;20370;-38
2023/10/08 03:44:12;;;;;;;8.05;4.25;;;;;;;19.02;34.68;99757.47;5050995;28;20090;-39
2023/10/08 03:46:40;;;;;;;12.43;4.45;;;;;;;19.02;34.91;99762.88;5051652;28;20037;-39
2023/10/08 03:49:14;;;;;;;10.13;4.93;;;;;;;19.10;34.10;99757.00;5051111;28;20091;-38
2023/10/08 03:51:39;;;;;;;10.68;5.28;;;;;;;19.03;34.43;99753.72;5051107;28;20065;-39
2023/10/08 03:54:18;;;;;;;14.63;5.72;;;;;;;19.06;34.23;99759.41;5051426;28;20107;-38
2023/10/08 03:56:51;;;;;;;13.32;5.53;;;;;;;19.10;34.40;99757.00;5051578;28;20107;-37
2023/10/08 03:59:20;;;;;;;10.77;5.05;;;;;;;19.06;34.46;99769.41;5051415;28;20025;-38
2023/10/08 04:01:54;;;;;;;10.38;4.90;;;;;;;19.21;34.36;99763.25;5051184;28;20501;-38
2023/10/08 04:04:21;;;;;;;9.95;4.65;;;;;;;19.18;34.36;99761.09;5051292;28;20047;-37
2023/10/08 04:06:51;;;;;;;8.60;4.10;;;;;;;19.18;34.06;99771.91;5051526;28;20051;-39
2023/10/08 04:09:23;;;;;;;7.15;3.90;;;;;;;18.97;34.78;99766.34;5055084;28;20040;-40
2023/10/08 04:11:51;;;;;;;5.47;3.35;;;;;;;19.03;35.13;99759.91;5055464;28;20179;-38
2023/10/08 04:14:24;;;;;;;8.15;3.70;;;;;;;19.04;34.65;99753.47;5055575;28;20048;-39
2023/10/08 04:16:54;;;;;;;6.07;3.70;;;;;;;19.31;34.97;99745.28;5055294;28;20021;-39
2023/10/08 04:19:26;;;;;;;7.82;3.90;;;;;;;19.45;34.23;99756.41;5055499;28;20024;-39
2023/10/08 04:21:55;;;;;;;5.70;3.55;;;;;;;19.56;34.29;99761.88;5055132;28;20029;-39
2023/10/08 04:24:28;;;;;;;8.13;3.40;;;;;;;19.33;34.34;99764.69;5055187;28;20052;-39
2023/10/08 04:27:02;;;;;;;5.03;2.95;;;;;;;19.06;34.18;99758.59;5054876;28;20481;-38
2023/10/08 04:29:31;;;;;;;6.90;2.97;;;;;;;18.97;34.63;99760.97;5054670;28;20415;-39
2023/10/08 04:32:12;;;;;;;5.13;2.83;;;;;;;19.14;34.36;99758.91;5054994;28;20029;-40
2023/10/08 04:34:37;;;;;;;7.38;3.30;;;;;;;19.20;33.88;99753.56;5054623;28;20029;-39
2023/10/08 04:37:11;;;;;;;5.57;3.15;;;;;;;18.90;34.55;99763.84;5054686;28;20040;-38
2023/10/08 04:39:39;;;;;;;6.65;3.50;;;;;;;18.78;34.55;99757.81;5054859;28;20017;-38
2023/10/08 04:42:10;;;;;;;6.60;3.10;;;;;;;18.84;34.80;99766.78;5054745;28;20030;-39
2023/10/08 04:44:39;;;;;;;7.93;3.65;;;;;;;18.52;35.08;99773.78;5055109;28;20052;-38
2023/10/08 04:47:06;;;;;;;5.50;3.20;;;;;;;18.82;35.21;99760.84;5055236;28;20166;-38
2023/10/08 04:49:34;;;;;;;5.28;3.28;;;;;;;18.84;35.34;99772.19;5054491;28;20056;-39
2023/10/08 04:52:05;;;;;;;5.75;3.13;;;;;;;19.00;34.57;99770.41;5054698;28;20025;-40
2023/10/08 04:54:30;;;;;;;4.63;3.10;;;;;;;19.49;33.61;99771.00;5054402;28;20519;-38
2023/10/08 04:57:00;;;;;;;7.40;3.20;;;;;;;20.06;33.56;99761.25;5054703;28;20025;-38
2023/10/08 04:59:32;;;;;;;6.22;3.38;;;;;;;20.15;32.74;99761.56;5054792;28;20090;-38
2023/10/08 05:07:40;;;;;;;6.57;2.95;;;;;;;20.66;32.10;99769.00;5053290;28;20547;-39
2023/10/08 05:12:37;;;;;;;4.78;2.83;;;;;;;20.92;30.71;99760.88;5052973;28;20029;-39
2023/10/08 05:23:20;;;;;;;5.72;3.38;;;;;;;21.81;29.63;99750.38;5053065;28;20035;-40
2023/10/08 05:28:35;;;;;;;4.90;2.95;;;;;;;22.24;28.95;99742.59;5051850;28;20052;-40
2023/10/08 05:39:29;;;;;;;7.38;2.80;;;;;;;23.89;28.84;99737.25;5052307;28;20043;-39
2023/10/08 05:42:13;;;;;;;6.25;3.10;;;;;;;23.64;28.17;99756.56;5052151;28;20048;-38
2023/10/08 05:53:02;;;;;;;7.22;2.75;;;;;;;23.95;26.66;99759.72;5051090;28;20416;-44
2023/10/08 05:55:35;;;;;;;5.53;2.78;;;;;;;24.59;25.81;99749.31;5051441;28;20048;-43
2023/10/08 06:01:09;;;;;;;6.80;3.50;;;;;;;25.23;25.10;99768.66;5012603;28;1122075;-41
2023/10/08 06:03:37;;;;;;;5.63;2.87;;;;;;;25.27;25.44;99766.97;5052056;28;20287;-42
2023/10/08 06:08:52;;;;;;;7.80;3.20;;;;;;;26.16;23.71;99764.91;5052350;28;20029;-41
2023/10/08 06:14:16;;;;;;;8.00;3.45;;;;;;;26.19;23.53;99766.22;5052538;28;20043;-43
2023/10/08 06:16:46;;;;;;;8.10;4.07;;;;;;;26.53;24.88;99777.41;5052125;28;20445;-44
2023/10/08 06:19:13;;;;;;;7.95;3.35;;;;;;;27.17;23.12;99779.16;5052811;28;20025;-43
2023/10/08 06:21:42;;;;;;;6.68;3.22;;;;;;;27.45;22.97;99774.28;5052057;28;20017;-43
2023/10/08 06:24:09;;;;;;;5.80;3.45;;;;;;;27.82;22.47;99779.56;5051973;28;20032;-42
2023/10/08 06:26:44;;;;;;;7.05;3.25;;;;;;;27.57;22.46;99779.19;5052144;28;20055;-44
2023/10/08 06:29:26;;;;;;;4.70;3.10;;;;;;;27.35;23.47;99769.13;5052098;28;20036;-43
2023/10/08 06:31:55;;;;;;;6.07;3.50;;;;;;;27.28;23.08;99775.06;5050963;28;20488;-43
2023/10/08 06:34:21;;;;;;;4.90;3.35;;;;;;;27.96;23.84;99776.72;5051703;28;20021;-44
2023/10/08 06:36:48;;;;;;;6.45;3.28;;;;;;;28.25;22.59;99776.94;5051483;28;20600;-42
2023/10/08 06:39:18;;;;;;;9.15;3.47;;;;;;;28.19;22.94;99775.47;5051845;28;20021;-43
2023/10/08 06:41:46;;;;;;;5.97;3.30;;;;;;;28.85;22.27;99775.31;5051801;28;20025;-46
2023/10/08 06:44:14;;;;;;;6.28;3.30;;;;;;;28.06;22.98;99782.72;5051389;28;20025;-45
2023/10/08 06:46:40;;;;;;;5.15;2.90;;;;;;;28.81;22.71;99774.34;5051314;28;20024;-44
2023/10/08 06:49:11;;;;;;;7.10;3.15;;;;;;;28.94;21.92;99774.47;5051653;28;20029;-43
2023/10/08 06:51:43;;;;;;;8.18;3.60;;;;;;;29.49;22.00;99784.63;5051258;28;20515;-44
2023/10/08 06:54:17;;;;;;;9.48;3.72;;;;;;;28.10;22.78;99787.53;5051562;28;20028;-42
2023/10/08 06:56:46;;;;;;;10.30;4.50;;;;;;;27.56;23.26;99782.22;5051435;28;20086;-42
2023/10/08 06:59:16;;;;;;;9.95;4.32;;;;;;;27.57;23.03;99781.09;5051299;28;20408;-46
2023/10/08 07:01:45;;;;;;;8.77;4.90;;;;;;;27.21;23.34;99779.31;5051174;28;20119;-43
2023/10/08 07:04:12;;;;;;;11.50;5.13;;;;;;;27.44;23.94;99783.63;5050976;28;20044;-44
2023/10/08 07:06:42;;;;;;;12.25;5.72;;;;;;;28.25;22.44;99776.94;5050601;28;20503;-44
2023/10/08 07:11:55;;;;;;;9.57;5.60;;;;;;;28.02;21.46;99765.31;5051140;28;20049;-42
2023/10/08 07:14:27;;;;;;;12.52;4.80;;;;;;;27.91;21.81;99774.16;5051137;28;20025;-44
2023/10/08 07:16:59;;;;;;;12.38;5.82;;;;;;;28.72;21.17;99770.81;5051060;28;20035;-40
2023/10/08 07:19:32;;;;;;;11.55;5.40;;;;;;;28.20;20.99;99760.69;5050737;28;20700;-43
2023/10/08 07:22:06;;;;;;;11.07;5.00;;;;;;;28.80;21.08;99755.50;5050842;28;20166;-41
2023/10/08 07:24:34;;;;;;;15.95;5.80;;;;;;;29.16;20.56;99768.00;5050877;28;20025;-41
2023/10/08 07:27:05;;;;;;;13.55;5.85;;;;;;;29.60;20.33;99761.19;5051179;28;20099;-44
2023/10/08 07:29:32;;;;;;;12.57;5.30;;;;;;;30.04;19.85;99755.47;5051054;28;20063;-45
2023/10/08 07:32:09;;;;;;;10.88;5.03;;;;;;;29.61;19.58;99757.34;5051064;28;20049;-43
2023/10/08 07:34:38;;;;;;;7.38;4.25;;;;;;;28.94;19.71;99739.69;5050806;28;20079;-44
2023/10/08 07:37:05;;;;;;;10.85;4.57;;;;;;;29.26;19.97;99745.72;5050964;28;20025;-42
2023/10/08 07:41:58;;;;;;;12.80;3.83;;;;;;;30.30;19.52;99741.56;5050525;28;20484;-45
2023/10/08 07:44:28;;;;;;;11.40;3.45;;;;;;;29.75;19.41;99735.19;5050907;28;20024;-44
2023/10/08 07:46:54;;;;;;;12.23;3.65;;;;;;;28.62;21.04;99735.59;5050567;28;20097;-47
2023/10/08 07:49:20;;;;;;;12.75;3.80;;;;;;;28.30;21.06;99726.72;5048830;28;20061;-43
2023/10/08 07:51:52;;;;;;;11.77;3.83;;;;;;;28.31;20.99;99722.88;5049725;28;20140;-43
2023/10/08 07:54:22;;;;;;;10.40;3.80;;;;;;;29.18;20.99;99719.97;5050238;28;20032;-44
2023/10/08 07:56:49;;;;;;;7.50;3.70;;;;;;;29.87;20.49;99723.47;5039051;28;20060;-42
2023/10/08 07:59:18;;;;;;;6.78;3.80;;;;;;;30.26;20.78;99735.13;5030664;28;20037;-43
2023/10/08 08:01:43;;;;;;;6.40;3.35;;;;;;;30.35;20.45;99724.13;5030373;28;20120;-42
2023/10/08 08:04:22;;;;;;;7.85;3.72;;;;;;;30.45;19.42;99729.19;5030402;28;20117;-43
2023/10/08 08:06:51;;;;;;;11.47;4.20;;;;;;;29.05;20.23;99718.22;5030279;28;20105;-44
2023/10/08 08:09:19;;;;;;;19.20;3.97;;;;;;;28.84;20.57;99718.94;5030862;28;20432;-44
2023/10/08 08:11:48;;;;;;;11.93;3.38;;;;;;;28.77;20.80;99710.44;5030423;28;20032;-42
2023/10/08 08:14:17;;;;;;;12.20;4.57;;;;;;;29.31;20.95;99709.94;5030236;28;20028;-44
2023/10/08 08:16:47;;;;;;;14.23;3.50;;;;;;;28.62;20.55;99708.22;5030317;28;20478;-47
2023/10/08 08:19:15;;;;;;;10.75;3.30;;;;;;;29.20;20.36;99705.94;5030222;28;20048;-43
2023/10/08 08:21:45;;;;;;;10.50;3.40;;;;;;;29.00;20.63;99704.72;5029563;28;20017;-44
2023/10/08 08:24:12;;;;;;;12.90;4.25;;;;;;;29.98;20.26;99708.22;5029661;28;20047;-42
2023/10/08 08:27:00;;;;;;;4.68;3.35;;;;;;;29.81;19.86;99694.66;5029936;28;20029;-44
2023/10/08 08:29:26;;;;;;;9.73;3.65;;;;;;;29.67;20.38;99705.06;5030154;28;20033;-43
2023/10/08 08:31:53;;;;;;;11.82;4.00;;;;;;;29.51;20.37;99694.69;5030180;28;20025;-44
2023/10/08 08:34:21;;;;;;;6.65;3.10;;;;;;;29.66;19.52;99687.78;5030411;28;20474;-42
2023/10/08 08:36:48;;;;;;;7.07;3.80;;;;;;;30.00;19.54;99697.72;5030584;28;20503;-44
2023/10/08 08:39:28;;;;;;;7.05;3.67;;;;;;;29.78;19.70;99687.91;5030307;28;20101;-44
2023/10/08 08:41:58;;;;;;;14.45;4.07;;;;;;;29.38;20.12;99687.50;5030349;28;20017;-44
2023/10/08 08:44:30;;;;;;;15.95;3.83;;;;;;;29.29;19.82;99678.53;5030358;28;20033;-45
2023/10/08 08:46:58;;;;;;;9.40;4.18;;;;;;;29.57;19.92;99679.63;5030419;28;20108;-45
2023/10/08 08:49:25;;;;;;;9.03;4.07;;;;;;;29.85;19.25;99681.88;5030725;28;20026;-42
2023/10/08 08:51:55;;;;;;;10.45;4.13;;;;;;;30.02;19.63;99672.72;5040912;28;20790;-43
2023/10/08 08:54:21;;;;;;;8.73;3.70;;;;;;;29.46;19.71;99670.19;5051855;28;20025;-44
2023/10/08 08:56:48;;;;;;;8.25;3.75;;;;;;;29.63;19.63;99675.56;5053648;28;20408;-44
2023/10/08 08:59:14;;;;;;;7.20;3.70;;;;;;;30.10;19.56;99663.63;5053878;28;20048;-44
2023/10/08 09:01:41;;;;;;;7.38;3.88;;;;;;;30.54;19.00;99654.97;5053351;28;20078;-44
2023/10/08 09:04:06;;;;;;;8.32;4.07;;;;;;;30.28;19.23;99655.22;5052953;28;20032;-46
2023/10/08 09:06:39;;;;;;;7.88;3.90;;;;;;;30.69;19.26;99656.25;5052497;28;20025;-47
2023/10/08 09:09:21;;;;;;;10.23;3.90;;;;;;;30.64;19.23;99651.81;5050361;28;20025;-44
2023/10/08 09:11:51;;;;;;;10.13;3.83;;;;;;;30.87;19.15;99651.38;5053187;28;20025;-44
2023/10/08 09:14:19;;;;;;;8.48;3.65;;;;;;;30.50;18.92;99641.16;5052976;28;20027;-41
2023/10/08 09:16:44;;;;;;;9.27;4.07;;;;;;;30.29;19.59;99637.59;5052788;28;20017;-43
2023/10/08 09:19:15;;;;;;;8.85;3.40;;;;;;;30.25;19.57;99640.22;5052404;28;20021;-45
2023/10/08 09:21:41;;;;;;;8.25;3.15;;;;;;;30.08;19.47;99623.94;5052656;28;20413;-43
2023/10/08 09:24:11;;;;;;;8.88;3.30;;;;;;;30.36;19.41;99633.19;5052726;28;20484;-42
2023/10/08 09:26:37;;;;;;;9.90;3.15;;;;;;;30.30;19.35;99626.28;5052848;28;20515;-40
2023/10/08 09:29:07;;;;;;;6.45;3.00;;;;;;;30.16;19.38;99618.38;5052960;28;20029;-43
2023/10/08 09:31:35;;;;;;;6.85;3.10;;;;;;;30.00;19.83;99633.84;5052666;28;20460;-42
2023/10/08 09:34:02;;;;;;;7.30;2.72;;;;;;;30.38;19.77;99619.13;5052471;28;20048;-42
2023/10/08 09:36:31;;;;;;;5.30;2.75;;;;;;;30.54;19.71;99622.03;5052441;28;20024;-42
2023/10/08 09:39:04;;;;;;;7.32;3.13;;;;;;;30.87;19.64;99623.91;5049975;28;20020;-43
2023/10/08 09:41:31;;;;;;;9.85;3.03;;;;;;;29.90;20.42;99613.13;5052182;28;20564;-44
2023/10/08 09:43:59;;;;;;;9.10;3.25;;;;;;;30.48;20.05;99607.75;5049922;28;20469;-43
2023/10/08 09:46:31;;;;;;;6.07;3.20;;;;;;;30.80;20.08;99611.53;5052275;28;20033;-46
2023/10/08 09:49:00;;;;;;;31.48;4.35;;;;;;;30.06;20.66;99613.28;5051327;28;20086;-42
2023/10/08 09:51:28;;;;;;;;;;;;;;;29.75;20.85;99597.28;5049947;28;20116;-45
2023/10/08 09:54:20;;;;;;;6.45;2.88;;;;;;;29.77;21.01;99590.31;5051936;28;19913;-44
2023/10/08 09:56:47;;;;;;;6.63;3.00;;;;;;;29.75;20.97;99586.31;5052354;28;20048;-43
2023/10/08 09:59:14;;;;;;;11.13;3.20;;;;;;;29.87;21.11;99593.78;5052398;28;20095;-42
2023/10/08 10:01:42;;;;;;;5.78;2.70;;;;;;;30.72;20.39;99592.44;5052416;28;20118;-41
2023/10/08 10:04:11;;;;;;;5.72;2.80;;;;;;;30.69;20.41;99591.19;5052253;28;20029;-42
2023/10/08 10:06:38;;;;;;;8.52;3.00;;;;;;;30.45;20.38;99585.66;5049604;28;20086;-46
2023/10/08 10:09:15;;;;;;;5.72;2.42;;;;;;;30.59;20.87;99580.63;5052401;28;20021;-42
2023/10/08 10:11:47;;;;;;;11.35;3.42;;;;;;;30.31;20.44;99572.19;5051168;28;20025;-43
2023/10/08 10:14:13;;;;;;;9.45;3.00;;;;;;;30.30;20.68;99574.16;5052189;28;20017;-41
2023/10/08 10:16:41;;;;;;;8.70;2.95;;;;;;;30.28;21.04;99573.69;5051928;28;20059;-42
2023/10/08 10:19:17;;;;;;;7.72;3.10;;;;;;;30.42;20.81;99559.69;5052418;28;20017;-42
2023/10/08 10:21:42;;;;;;;8.00;3.00;;;;;;;29.72;21.22;99568.59;5052623;28;20017;-42
2023/10/08 10:24:22;;;;;;;6.95;2.95;;;;;;;29.95;21.12;99557.25;5052172;28;20043;-39
2023/10/08 10:26:50;;;;;;;6.88;3.10;;;;;;;30.40;20.95;99567.44;5052356;28;20025;-42
2023/10/08 10:29:19;;;;;;;9.00;3.10;;;;;;;30.04;21.17;99565.41;5052524;28;20036;-41
2023/10/08 10:31:53;;;;;;;5.57;2.85;;;;;;;29.92;20.87;99550.50;5052010;28;20112;-40
2023/10/08 10:34:21;;;;;;;6.10;2.80;;;;;;;30.04;21.22;99548.94;5051820;28;20024;-39
2023/10/08 10:36:49;;;;;;;18.60;3.40;;;;;;;29.67;21.41;99557.81;5045820;28;20028;-39
2023/10/08 10:39:16;;;;;;;9.18;3.08;;;;;;;30.00;21.09;99538.63;5051367;28;20035;-40
2023/10/08 10:41:46;;;;;;;9.82;2.72;;;;;;;30.53;21.17;99540.81;5051697;28;20036;-41
2023/10/08 10:44:13;;;;;;;10.00;2.83;;;;;;;29.93;21.23;99519.22;5051520;28;20429;-42
2023/10/08 10:46:43;;;;;;;7.25;2.78;;;;;;;30.24;21.54;99512.41;5051701;28;20106;-41
2023/10/08 10:49:21;;;;;;;4.97;2.63;;;;;;;30.95;20.97;99510.41;5051706;28;20025;-40
2023/10/08 10:51:59;;;;;;;10.02;2.72;;;;;;;30.87;21.27;99511.31;5049020;28;20033;-40
2023/10/08 10:54:25;;;;;;;12.50;2.75;;;;;;;30.70;21.43;99509.59;5050450;28;20469;-40
2023/10/08 10:57:17;;;;;;;12.82;2.78;;;;;;;31.08;21.28;99514.72;5050790;28;20044;-41
2023/10/08 10:59:52;;;;;;;5.07;2.42;;;;;;;30.84;21.46;99511.97;5044074;28;20116;-40
2023/10/08 11:02:30;;;;;;;10.52;2.67;;;;;;;30.57;20.87;99492.31;5049194;28;20090;-41
2023/10/08 11:05:07;;;;;;;8.80;2.67;;;;;;;30.76;21.44;99513.69;5050508;28;20484;-44
2023/10/08 11:07:33;;;;;;;6.72;2.67;;;;;;;30.63;21.79;99501.91;5050275;28;20029;-41
2023/10/08 11:09:59;;;;;;;6.30;2.78;;;;;;;30.84;21.59;99496.28;5046789;28;20481;-41
2023/10/08 11:12:42;;;;;;;9.23;3.00;;;;;;;31.26;21.15;99497.94;5047902;28;20500;-39
2023/10/08 11:15:15;;;;;;;14.77;2.90;;;;;;;30.81;21.18;99488.75;5050554;28;20021;-43
2023/10/08 11:17:41;;;;;;;10.05;3.00;;;;;;;30.84;21.71;99488.06;5050626;28;20021;-41
2023/10/08 11:20:29;;;;;;;8.68;2.60;;;;;;;31.05;21.15;99485.19;5050592;28;20021;-43
2023/10/08 11:22:55;;;;;;;7.55;2.90;;;;;;;31.43;20.98;99483.91;5049348;28;20079;-41
2023/10/08 11:25:30;;;;;;;7.93;2.75;;;;;;;32.29;20.57;99486.25;5049062;28;20016;-40
2023/10/08 11:28:01;;;;;;;17.40;3.40;;;;;;;31.88;20.62;99482.81;5046240;28;20510;-40
2023/10/08 11:30:31;;;;;;;7.32;2.97;;;;;;;31.37;20.90;99483.38;5050150;28;20013;-43
2023/10/08 11:33:00;;;;;;;7.60;2.72;;;;;;;31.03;21.58;99475.69;5048023;28;20445;-39
2023/10/08 11:35:28;;;;;;;8.05;2.97;;;;;;;30.84;21.74;99485.31;5044522;28;20051;-40
2023/10/08 11:38:00;;;;;;;8.20;2.73;;;;;;;30.89;21.29;99462.31;5048856;28;20021;-41
2023/10/08 11:40:48;;;;;;;7.93;2.65;;;;;;;31.50;21.23;99470.41;5050318;28;20013;-40
2023/10/08 11:43:15;;;;;;;7.78;2.80;;;;;;;31.60;21.23;99465.56;5050131;28;20025;-39
2023/10/08 11:45:48;;;;;;;6.47;2.65;;;;;;;31.50;20.97;99453.91;5050260;28;20115;-40
2023/10/08 11:48:17;;;;;;;6.20;2.70;;;;;;;31.75;20.98;99462.03;5049363;28;20158;-42
2023/10/08 11:50:43;;;;;;;6.68;2.47;;;;;;;31.36;21.04;99446.03;5050080;28;20013;-39
2023/10/08 11:53:11;;;;;;;10.20;3.13;;;;;;;31.04;21.56;99450.63;5047144;28;20025;-40
2023/10/08 11:55:38;;;;;;;8.68;3.00;;;;;;;31.07;21.41;99441.69;5049750;28;20086;-39
2023/10/08 11:58:09;;;;;;;8.55;3.30;;;;;;;30.66;21.57;99446.34;5050211;28;20075;-39
2023/10/08 12:00:45;;;;;;;6.47;2.70;;;;;;;31.15;21.54;99451.75;5047233;28;20102;-40
2023/10/08 12:03:11;;;;;;;16.05;2.90;;;;;;;31.30;21.35;99430.97;5050327;28;20031;-41
2023/10/08 12:05:40;;;;;;;6.75;2.80;;;;;;;31.27;21.43;99437.16;5050715;28;20103;-39
2023/10/08 12:08:11;;;;;;;6.43;2.42;;;;;;;31.06;21.57;99437.34;5050237;28;20029;-42
2023/10/08 12:10:38;;;;;;;5.40;2.53;;;;;;;31.35;21.66;99430.69;5050130;28;20124;-41
2023/10/08 12:13:05;;;;;;;5.43;2.60;;;;;;;31.74;21.03;99430.19;5049833;28;20496;-40
2023/10/08 12:15:38;;;;;;;7.40;2.67;;;;;;;31.30;21.60;99427.41;5050699;28;20044;-41
2023/10/08 12:19:15;;;;;;;6.97;2.67;;;;;;;31.34;21.54;99431.06;5050932;28;20025;-40
2023/10/08 12:20:59;;;;;;;9.20;2.85;;;;;;;31.44;21.32;99424.25;5048127;28;20041;-40
2023/10/08 12:23:29;;;;;;;8.07;2.63;;;;;;;30.92;21.47;99423.19;5050696;28;20064;-41
2023/10/08 12:25:57;;;;;;;8.68;3.10;;;;;;;31.32;21.28;99420.41;5050710;28;20388;-39
2023/10/08 12:28:23;;;;;;;;;;;;;;;31.56;21.03;99413.22;5051380;28;20027;-40
2023/10/08 12:30:52;;;;;;;12.55;2.95;;;;;;;31.18;21.61;99422.75;5054282;28;19955;-40
2023/10/08 12:33:23;;;;;;;10.50;2.95;;;;;;;31.30;21.40;99419.97;5054444;28;20031;-40
2023/10/08 12:35:49;;;;;;;12.75;3.00;;;;;;;30.94;21.58;99423.66;5052077;28;20091;-40
2023/10/08 12:38:15;;;;;;;7.13;2.75;;;;;;;30.92;21.63;99413.00;5054622;28;20481;-41